Wellfleet, Nebraska
Current Conditions -  °F | °C
As of 2:53 AM on Sunday 26 Oct 2014 (Local Time) from KLBF Reporting Station
Clear Clear  
Wind Chill: 39°   Ceiling: Unl
Heat Index: 43°   Visibility: 10mi
Dew Point: 40°   Wind: 7mph
Humidity: 89%   Direction: 100°E
Pressure: 29.84"   Gusts: NA
Location:  40.75°N, 100.73°W
Report Text: KLBF 260753Z AUTO 10006KT 10SM CLR 06/04 A2984 RMK AO2 SLP091 T00610044
Loading
Personal Weather Stations






























Interactive Weather Map
Tropical Storm Tracking
New forecast layout! Learn more

10-Day Weather Forecast

Advertisements
Track Severe Weather on mobile